TimeEEST,TemperatureF,Dew PointF,Humidity,Sea Level PressureIn,VisibilityMPH,Wind Direction,Wind SpeedMPH,Gust SpeedMPH,PrecipitationIn,Events,Conditions,WindDirDegrees,DateUTC
5:20 AM,62.6,59.0,88,29.92,-9999.0,Calm,Calm,-,N/A,,Clear,0,2012-10-03 02:20:00
5:50 AM,62.6,59.0,88,29.92,6.2,Calm,Calm,-,N/A,,Partly Cloudy,0,2012-10-03 02:50:00
6:20 AM,62.6,59.0,88,29.92,6.2,Calm,Calm,-,N/A,,Partly Cloudy,0,2012-10-03 03:20:00
6:50 AM,62.6,60.8,94,29.92,6.2,Calm,Calm,-,N/A,,Partly Cloudy,0,2012-10-03 03:50:00
7:20 AM,62.6,60.8,94,29.92,6.2,NNE,4.6,-,N/A,,Partly Cloudy,30,2012-10-03 04:20:00
7:50 AM,62.6,60.8,94,29.92,6.2,Calm,Calm,-,N/A,,Partly Cloudy,0,2012-10-03 04:50:00
8:20 AM,64.4,60.8,88,29.92,6.2,Calm,Calm,-,N/A,,Partly Cloudy,0,2012-10-03 05:20:00
8:50 AM,64.4,59.0,83,29.92,6.2,Calm,Calm,-,N/A,,Partly Cloudy,0,2012-10-03 05:50:00
9:20 AM,64.4,59.0,83,29.92,6.2,Calm,Calm,-,N/A,,Partly Cloudy,0,2012-10-03 06:20:00
9:50 AM,69.8,62.6,78,29.92,6.2,Calm,Calm,-,N/A,,Partly Cloudy,0,2012-10-03 06:50:00
10:20 AM,69.8,62.6,78,29.92,6.2,Calm,Calm,-,N/A,,Partly Cloudy,0,2012-10-03 07:20:00
10:50 AM,73.4,66.2,78,29.92,6.2,Calm,Calm,-,N/A,,Partly Cloudy,0,2012-10-03 07:50:00
11:20 AM,73.4,66.2,78,29.92,6.2,Calm,Calm,-,N/A,,Partly Cloudy,0,2012-10-03 08:20:00
11:50 AM,77.0,66.2,69,29.92,6.2,Calm,Calm,-,N/A,,Partly Cloudy,0,2012-10-03 08:50:00
12:20 PM,77.0,66.2,69,29.92,6.2,Calm,Calm,-,N/A,,Partly Cloudy,0,2012-10-03 09:20:00
12:50 PM,78.8,64.4,61,29.92,6.2,South,5.8,-,N/A,,Partly Cloudy,170,2012-10-03 09:50:00
1:20 PM,78.8,64.4,61,29.92,6.2,SSE,5.8,-,N/A,,Partly Cloudy,150,2012-10-03 10:20:00
1:50 PM,80.6,66.2,61,29.92,6.2,South,5.8,-,N/A,,Partly Cloudy,170,2012-10-03 10:50:00
2:20 PM,80.6,66.2,61,29.89,6.2,SSW,6.9,-,N/A,,Partly Cloudy,200,2012-10-03 11:20:00
2:50 PM,78.8,64.4,61,29.89,6.2,SSW,8.1,-,N/A,,Partly Cloudy,210,2012-10-03 11:50:00
3:20 PM,78.8,64.4,61,29.89,6.2,SSW,6.9,-,N/A,,Partly Cloudy,210,2012-10-03 12:20:00
3:50 PM,78.8,64.4,61,29.89,6.2,SSW,5.8,-,N/A,,Partly Cloudy,210,2012-10-03 12:50:00
4:20 PM,78.8,64.4,61,29.89,6.2,SW,5.8,-,N/A,,Partly Cloudy,230,2012-10-03 13:20:00
4:50 PM,78.8,64.4,61,29.89,6.2,SW,5.8,-,N/A,,Partly Cloudy,230,2012-10-03 13:50:00
5:20 PM,78.8,64.4,61,29.86,6.2,SW,8.1,-,N/A,,Partly Cloudy,230,2012-10-03 14:20:00
5:50 PM,75.2,68.0,78,29.86,6.2,WSW,8.1,-,N/A,,Partly Cloudy,240,2012-10-03 14:50:00
6:20 PM,75.2,68.0,78,29.86,6.2,WSW,6.9,-,N/A,,Partly Cloudy,240,2012-10-03 15:20:00
6:50 PM,75.2,68.0,78,29.89,6.2,WSW,5.8,-,N/A,,Partly Cloudy,240,2012-10-03 15:50:00
7:20 PM,73.4,68.0,83,29.89,6.2,Calm,Calm,-,N/A,,Partly Cloudy,0,2012-10-03 16:20:00
7:50 PM,71.6,68.0,88,29.89,6.2,Calm,Calm,-,N/A,,Partly Cloudy,0,2012-10-03 16:50:00
8:20 PM,69.8,68.0,94,29.89,6.2,Calm,Calm,-,N/A,,Partly Cloudy,0,2012-10-03 17:20:00
8:50 PM,69.8,68.0,94,29.89,6.2,Calm,Calm,-,N/A,,Partly Cloudy,0,2012-10-03 17:50:00
9:20 PM,69.8,68.0,94,29.89,6.2,Calm,Calm,-,N/A,,Partly Cloudy,0,2012-10-03 18:20:00
9:50 PM,68.0,66.2,94,29.89,5.0,Calm,Calm,-,N/A,,Partly Cloudy,0,2012-10-03 18:50:00